createdAt,value
2022-08-03T00:09:08.238Z,99.90
2022-08-03T00:12:11.686Z,99.90
2022-08-03T00:15:16.949Z,99.90
2022-08-03T00:18:20.651Z,99.90
2022-08-03T00:21:24.034Z,99.90
2022-08-03T00:27:32.672Z,99.90
2022-08-03T00:30:37.349Z,99.90
2022-08-03T00:33:58.141Z,99.90
2022-08-03T00:37:03.071Z,99.90
2022-08-03T00:43:12.277Z,99.90
2022-08-03T00:46:21.029Z,99.90
2022-08-03T00:49:25.314Z,99.90
2022-08-03T00:52:28.747Z,99.90
2022-08-03T00:58:37.116Z,99.90
2022-08-03T01:01:40.439Z,99.90
2022-08-03T01:04:43.716Z,99.90
2022-08-03T01:08:00.059Z,99.90
2022-08-03T01:11:13.149Z,99.90
2022-08-03T01:14:20.953Z,99.90
2022-08-03T01:17:32.078Z,99.90
2022-08-03T01:20:41.788Z,99.90
2022-08-03T01:24:16.688Z,99.90
2022-08-03T01:27:24.768Z,99.90
2022-08-03T01:30:32.675Z,99.90
2022-08-03T01:33:40.394Z,99.90
2022-08-03T01:36:50.240Z,99.90
2022-08-03T01:39:56.546Z,99.90
2022-08-03T01:43:03.239Z,99.90
2022-08-03T01:46:09.761Z,99.90
2022-08-03T01:49:14.755Z,99.90
2022-08-03T01:52:20.677Z,99.90
2022-08-03T01:55:27.474Z,99.90
2022-08-03T01:58:32.255Z,99.90
2022-08-03T02:02:25.298Z,99.90
2022-08-03T02:05:02.773Z,99.90
2022-08-03T02:08:08.861Z,99.90
2022-08-03T02:11:13.479Z,99.90
2022-08-03T02:14:18.501Z,99.90
2022-08-03T02:17:39.587Z,99.90
2022-08-03T02:20:45.135Z,99.90
2022-08-03T02:23:48.576Z,99.90
2022-08-03T02:26:53.779Z,99.90
2022-08-03T02:30:03.831Z,99.90
2022-08-03T02:33:12.501Z,99.90
2022-08-03T02:36:17.978Z,99.90
2022-08-03T02:39:24.868Z,99.90
2022-08-03T02:42:29.659Z,99.90
2022-08-03T02:45:35.988Z,99.90
2022-08-03T02:48:44.241Z,99.90
2022-08-03T02:51:50.180Z,99.90
2022-08-03T02:54:57.180Z,99.90
2022-08-03T02:58:01.473Z,99.90
2022-08-03T03:01:05.595Z,99.90
2022-08-03T03:04:11.991Z,99.90
2022-08-03T03:07:17.826Z,99.90
2022-08-03T03:10:22.541Z,99.90
2022-08-03T03:13:26.551Z,99.90
2022-08-03T03:16:31.381Z,99.90
2022-08-03T03:19:38.306Z,99.90
2022-08-03T03:22:43.518Z,99.90
2022-08-03T03:25:48.710Z,99.90
2022-08-03T03:28:52.327Z,99.90
2022-08-03T03:31:57.240Z,99.90
2022-08-03T03:35:02.403Z,99.90
2022-08-03T03:38:05.743Z,99.90
2022-08-03T03:41:09.269Z,99.90
2022-08-03T03:44:12.662Z,99.90
2022-08-03T03:47:15.966Z,99.90
2022-08-03T03:50:23.471Z,99.90
2022-08-03T03:53:26.936Z,99.90
2022-08-03T03:56:30.529Z,99.90
2022-08-03T03:59:33.789Z,99.90
2022-08-03T04:02:40.546Z,99.90
2022-08-03T04:06:05.436Z,99.90
2022-08-03T04:09:29.007Z,99.90
2022-08-03T04:12:33.568Z,99.90
2022-08-03T04:15:38.993Z,99.90
2022-08-03T04:18:44.935Z,99.90
2022-08-03T04:21:52.061Z,99.90
2022-08-03T04:25:01.273Z,99.90
2022-08-03T04:28:20.978Z,99.90
2022-08-03T04:31:29.465Z,99.90
2022-08-03T04:34:33.010Z,99.90
2022-08-03T04:37:41.719Z,99.90
2022-08-03T04:40:47.495Z,99.90
2022-08-03T04:43:52.768Z,99.90
2022-08-03T04:46:57.397Z,99.90
2022-08-03T04:50:02.572Z,99.90
2022-08-03T04:53:08.973Z,99.90
2022-08-03T04:56:13.037Z,99.90
2022-08-03T04:59:17.793Z,99.90
2022-08-03T05:02:21.215Z,99.90
2022-08-03T05:05:24.867Z,99.90
2022-08-03T05:08:29.489Z,99.90
2022-08-03T05:11:32.924Z,99.90
2022-08-03T05:14:38.260Z,99.90
2022-08-03T05:17:41.888Z,99.90
2022-08-03T05:20:45.416Z,99.90
2022-08-03T05:26:53.966Z,99.90
2022-08-03T05:29:57.224Z,99.90
2022-08-03T05:33:20.557Z,99.90
2022-08-03T05:36:23.796Z,99.90
2022-08-03T05:39:28.406Z,99.90
2022-08-03T05:42:31.674Z,99.90
2022-08-03T05:45:35.110Z,99.90
2022-08-03T05:48:38.330Z,99.90
2022-08-03T05:51:41.648Z,99.90
2022-08-03T05:54:55.468Z,99.90
2022-08-03T05:58:02.549Z,99.90
2022-08-03T06:01:06.570Z,98.50
2022-08-03T06:04:09.789Z,95.20
2022-08-03T06:07:13.034Z,92.60
2022-08-03T06:10:35.230Z,98.30
2022-08-03T06:13:41.621Z,99.70
2022-08-03T06:16:44.891Z,79.30
2022-08-03T06:19:48.129Z,90.90
2022-08-03T06:23:00.199Z,99.90
2022-08-03T06:26:06.115Z,99.90
2022-08-03T06:29:09.984Z,99.90
2022-08-03T06:35:17.173Z,99.90
2022-08-03T06:38:20.659Z,99.90
2022-08-03T06:41:25.312Z,99.90
2022-08-03T06:44:28.692Z,99.90
2022-08-03T06:47:31.933Z,99.90
2022-08-03T06:50:36.950Z,99.90
2022-08-03T06:53:40.337Z,99.90
2022-08-03T07:00:07.495Z,72.90
2022-08-03T07:03:12.161Z,73.30
2022-08-03T07:06:15.440Z,59.00
2022-08-03T07:09:18.678Z,15.00
2022-08-03T07:15:54.373Z,7.70
2022-08-03T07:18:50.347Z,14.30
2022-08-03T07:21:53.710Z,1.00
2022-08-03T07:24:58.142Z,1.00
2022-08-03T07:31:06.311Z,1.00
2022-08-03T07:34:09.624Z,1.00
2022-08-03T07:37:12.941Z,1.00
2022-08-03T07:40:17.837Z,1.00
2022-08-03T07:46:27.568Z,1.00
2022-08-03T07:49:31.238Z,1.00
2022-08-03T07:52:50.711Z,1.00
2022-08-03T07:55:54.129Z,1.00
2022-08-03T07:58:59.756Z,1.00
2022-08-03T08:02:03.299Z,1.00
2022-08-03T08:05:07.283Z,1.00
2022-08-03T08:08:11.242Z,1.00
2022-08-03T08:11:14.854Z,1.00
2022-08-03T08:14:19.532Z,1.00
2022-08-03T08:17:22.906Z,1.00
2022-08-03T08:20:31.437Z,1.00
2022-08-03T08:23:41.862Z,1.00
2022-08-03T08:26:46.964Z,1.00
2022-08-03T08:32:58.963Z,1.00
2022-08-03T08:36:02.321Z,1.00
2022-08-03T08:39:05.618Z,1.00
2022-08-03T08:42:08.928Z,1.00
2022-08-03T08:48:23.547Z,1.00
2022-08-03T08:51:59.708Z,1.00
2022-08-03T08:54:57.331Z,1.00
2022-08-03T08:58:06.173Z,1.00
2022-08-03T09:04:15.029Z,1.00
2022-08-03T09:07:20.478Z,1.00
2022-08-03T09:10:24.318Z,1.00
2022-08-03T09:13:29.095Z,1.00
2022-08-03T09:16:33.857Z,1.00
2022-08-03T09:19:37.733Z,1.00
2022-08-03T09:22:54.521Z,1.00
2022-08-03T09:26:01.693Z,1.00
2022-08-03T09:29:13.287Z,1.00
2022-08-03T09:32:22.177Z,1.00
2022-08-03T09:35:51.563Z,1.00
2022-08-03T09:39:04.512Z,1.00
2022-08-03T09:42:09.886Z,1.00
2022-08-03T09:45:27.967Z,1.00
2022-08-03T09:48:34.995Z,1.00
2022-08-03T09:52:38.363Z,1.00
2022-08-03T09:55:03.074Z,1.00
2022-08-03T09:58:09.203Z,1.00
2022-08-03T10:01:24.128Z,1.00
2022-08-03T10:04:30.011Z,1.00
2022-08-03T10:07:46.145Z,1.00
2022-08-03T10:10:53.925Z,1.00
2022-08-03T10:14:01.334Z,1.00
2022-08-03T10:17:05.193Z,1.00
2022-08-03T10:20:11.485Z,1.00
2022-08-03T10:23:18.459Z,1.00
2022-08-03T10:26:26.442Z,1.00
2022-08-03T10:29:30.730Z,1.00
2022-08-03T10:32:38.855Z,1.00
2022-08-03T10:35:44.827Z,1.00
2022-08-03T10:38:53.785Z,1.00
2022-08-03T10:42:02.382Z,1.00
2022-08-03T10:45:08.388Z,21.90
2022-08-03T10:48:37.360Z,1.00
2022-08-03T10:55:07.747Z,1.00
2022-08-03T10:58:13.526Z,1.00
2022-08-03T11:01:59.262Z,1.00
2022-08-03T11:05:28.719Z,1.00
2022-08-03T11:08:35.834Z,1.00
2022-08-03T11:14:49.064Z,1.00
2022-08-03T11:18:11.096Z,1.00
2022-08-03T11:21:14.955Z,1.00
2022-08-03T11:24:54.300Z,1.00
2022-08-03T11:28:30.562Z,1.00
2022-08-03T11:31:58.095Z,1.00
2022-08-03T11:35:11.944Z,1.00
2022-08-03T11:38:15.239Z,1.00
2022-08-03T11:41:43.271Z,1.00
2022-08-03T11:44:50.923Z,1.00
2022-08-03T11:47:56.353Z,1.00
2022-08-03T11:55:34.567Z,1.00
2022-08-03T11:58:58.315Z,1.00
2022-08-03T12:02:09.478Z,1.00
2022-08-03T12:05:12.774Z,1.00
2022-08-03T12:08:17.911Z,1.00
2022-08-03T12:11:21.193Z,1.00
2022-08-03T12:14:49.496Z,1.00
2022-08-03T12:17:49.352Z,1.00
2022-08-03T12:20:54.362Z,1.00
2022-08-03T12:24:01.240Z,1.00
2022-08-03T12:27:04.587Z,1.00
2022-08-03T12:30:08.937Z,1.00
2022-08-03T12:33:26.835Z,1.00
2022-08-03T12:36:31.106Z,1.00
2022-08-03T12:39:34.414Z,1.00
2022-08-03T12:42:39.709Z,1.00
2022-08-03T12:45:43.557Z,1.00
2022-08-03T12:49:19.155Z,1.00
2022-08-03T12:52:23.973Z,1.00
2022-08-03T12:55:40.174Z,1.00
2022-08-03T12:58:57.068Z,1.00
2022-08-03T13:02:00.861Z,1.00
2022-08-03T13:05:13.012Z,1.00
2022-08-03T13:08:20.940Z,1.00
2022-08-03T13:11:29.415Z,1.00
2022-08-03T13:14:52.957Z,1.00
2022-08-03T13:17:56.591Z,1.00
2022-08-03T13:21:02.267Z,1.00
2022-08-03T13:24:07.448Z,1.00
2022-08-03T13:28:01.232Z,1.00
2022-08-03T13:30:36.145Z,1.00
2022-08-03T13:33:40.881Z,1.00
2022-08-03T13:40:11.639Z,1.00
2022-08-03T13:49:23.931Z,1.00
2022-08-03T13:55:32.328Z,1.00
2022-08-03T13:58:35.611Z,1.00
2022-08-03T14:01:53.987Z,1.00
2022-08-03T14:04:58.942Z,1.00
2022-08-03T14:08:05.668Z,1.00
2022-08-03T14:11:09.223Z,1.00
2022-08-03T14:14:13.663Z,1.00
2022-08-03T14:17:20.118Z,1.00
2022-08-03T14:24:19.671Z,1.00
2022-08-03T14:34:46.822Z,1.00
2022-08-03T14:39:19.906Z,1.00
2022-08-03T15:03:06.983Z,1.00
2022-08-03T15:06:37.358Z,1.00
2022-08-03T15:13:01.509Z,1.00
2022-08-03T15:16:08.764Z,1.00
2022-08-03T15:20:03.241Z,1.00
2022-08-03T15:23:41.716Z,1.00
2022-08-03T15:30:18.532Z,1.00
2022-08-03T15:33:23.431Z,1.00
2022-08-03T15:36:26.763Z,1.00
2022-08-03T15:39:30.416Z,1.00
2022-08-03T15:42:34.890Z,1.00
2022-08-03T15:45:38.390Z,1.00
2022-08-03T15:48:43.150Z,1.00
2022-08-03T15:51:46.444Z,1.00
2022-08-03T15:55:08.470Z,1.00
2022-08-03T16:01:39.873Z,1.00
2022-08-03T16:08:03.493Z,1.00
2022-08-03T16:11:12.726Z,1.00
2022-08-03T16:20:49.060Z,1.00
2022-08-03T16:23:52.517Z,1.00
2022-08-03T16:26:56.309Z,1.00
2022-08-03T16:30:03.033Z,1.00
2022-08-03T16:33:06.467Z,1.00
2022-08-03T16:36:14.731Z,1.00
2022-08-03T16:39:21.304Z,1.00
2022-08-03T16:45:31.475Z,1.00
2022-08-03T16:48:39.798Z,1.00
2022-08-03T17:11:14.788Z,1.00
2022-08-03T17:14:29.543Z,1.00
2022-08-03T17:24:59.054Z,1.00
2022-08-03T17:39:48.354Z,1.00
2022-08-03T17:44:13.352Z,1.00
2022-08-03T17:51:46.204Z,2.40
2022-08-03T17:55:57.428Z,14.80
2022-08-03T18:03:20.703Z,40.80
2022-08-03T18:18:33.631Z,90.00
2022-08-03T18:22:03.419Z,90.20
2022-08-03T18:25:07.709Z,91.90
2022-08-03T18:28:14.098Z,93.10
2022-08-03T18:31:59.706Z,94.20
2022-08-03T18:34:53.604Z,97.10
2022-08-03T18:38:00.969Z,97.20
2022-08-03T18:41:07.033Z,99.40
2022-08-03T18:44:53.197Z,97.50
2022-08-03T18:47:58.977Z,99.00
2022-08-03T18:51:07.505Z,99.90
2022-08-03T18:54:45.556Z,99.90
2022-08-03T18:57:44.494Z,99.90
2022-08-03T19:01:56.416Z,99.90
2022-08-03T19:04:35.496Z,99.90
2022-08-03T19:07:58.243Z,99.90
2022-08-03T19:11:06.258Z,99.90
2022-08-03T19:14:12.810Z,99.90
2022-08-03T19:17:21.219Z,99.90
2022-08-03T19:23:53.598Z,99.90
2022-08-03T19:30:38.874Z,99.90
2022-08-03T19:33:55.866Z,99.90
2022-08-03T19:37:02.452Z,99.90
2022-08-03T19:40:10.807Z,99.90
2022-08-03T19:43:22.464Z,99.90
2022-08-03T19:46:30.887Z,99.90
2022-08-03T19:50:01.303Z,99.90
2022-08-03T19:53:05.768Z,99.90
2022-08-03T19:56:14.440Z,99.90
2022-08-03T19:59:23.596Z,99.90
2022-08-03T20:02:29.972Z,99.90
2022-08-03T20:05:45.167Z,99.90
2022-08-03T20:12:03.943Z,99.90
2022-08-03T20:15:09.177Z,99.90
2022-08-03T20:18:16.751Z,99.90
2022-08-03T20:21:25.241Z,99.90
2022-08-03T20:24:34.426Z,99.90
2022-08-03T20:28:06.762Z,99.90
2022-08-03T20:31:11.733Z,99.90
2022-08-03T20:37:21.130Z,99.90
2022-08-03T20:40:27.350Z,99.90
2022-08-03T20:46:53.377Z,99.90
2022-08-03T20:50:01.299Z,99.90
2022-08-03T20:53:06.075Z,99.90
2022-08-03T20:56:11.011Z,99.90
2022-08-03T20:59:20.880Z,99.90
2022-08-03T21:02:29.976Z,99.90
2022-08-03T21:05:48.462Z,99.90
2022-08-03T21:09:00.138Z,99.90
2022-08-03T21:12:09.251Z,99.90
2022-08-03T21:13:01.993Z,99.90
2022-08-03T21:13:02.203Z,99.90
2022-08-03T21:16:06.324Z,99.90
2022-08-03T21:18:46.203Z,99.90
2022-08-03T21:21:50.674Z,99.90
2022-08-03T21:24:57.444Z,99.90
2022-08-03T21:28:02.187Z,99.90
2022-08-03T21:31:07.583Z,99.90
2022-08-03T21:34:11.091Z,99.90
2022-08-03T21:37:15.980Z,99.90
2022-08-03T21:40:19.426Z,99.90
2022-08-03T21:43:23.112Z,99.90
2022-08-03T21:46:33.067Z,99.90
2022-08-03T21:50:06.895Z,99.90
2022-08-03T21:53:02.072Z,99.90
2022-08-03T21:56:09.054Z,99.90
2022-08-03T21:59:19.464Z,99.90
2022-08-03T22:02:26.807Z,99.90
2022-08-03T22:05:43.341Z,99.90
2022-08-03T22:08:48.917Z,99.90
2022-08-03T22:11:54.346Z,99.90
2022-08-03T22:15:00.741Z,99.90
2022-08-03T22:18:07.792Z,99.90
2022-08-03T22:21:13.855Z,99.90
2022-08-03T22:24:23.927Z,99.90
2022-08-03T22:27:34.338Z,99.90
2022-08-03T22:30:38.458Z,99.90
2022-08-03T22:33:46.351Z,99.90
2022-08-03T22:36:49.810Z,99.90
2022-08-03T22:39:54.741Z,99.90
2022-08-03T22:42:59.003Z,99.90
2022-08-03T22:46:09.023Z,99.90
2022-08-03T22:49:19.251Z,99.90
2022-08-03T22:52:24.337Z,99.90
2022-08-03T22:55:28.608Z,99.90
2022-08-03T23:01:40.098Z,99.90
2022-08-03T23:04:46.850Z,99.90
2022-08-03T23:07:53.361Z,99.90
2022-08-03T23:11:01.773Z,99.90
2022-08-03T23:14:12.766Z,99.90
2022-08-03T23:17:18.024Z,99.90
2022-08-03T23:20:26.575Z,99.90
2022-08-03T23:23:44.654Z,99.90
2022-08-03T23:26:49.878Z,99.90
2022-08-03T23:29:54.907Z,99.90
2022-08-03T23:32:59.476Z,99.90
2022-08-03T23:39:35.164Z,99.90
2022-08-03T23:42:40.123Z,99.90
2022-08-03T23:45:45.715Z,99.90
2022-08-03T23:48:49.085Z,99.90
2022-08-03T23:52:01.908Z,99.90
2022-08-03T23:55:17.194Z,99.90
2022-08-03T23:58:42.999Z,99.90
